createdAt,value
2018-03-02T00:00:33.269Z,0.00
2018-03-02T00:01:39.142Z,0.00
2018-03-02T00:02:45.049Z,0.00
2018-03-02T00:03:50.929Z,0.00
2018-03-02T00:04:56.849Z,0.00
2018-03-02T00:06:02.724Z,0.00
2018-03-02T00:07:08.619Z,0.00
2018-03-02T00:08:14.494Z,0.00
2018-03-02T00:09:20.918Z,0.00
2018-03-02T00:10:26.297Z,0.00
2018-03-02T00:11:32.663Z,0.00
2018-03-02T00:12:38.069Z,0.00
2018-03-02T00:13:43.971Z,0.00
2018-03-02T00:14:49.969Z,0.00
2018-03-02T00:15:55.738Z,0.00
2018-03-02T00:17:01.638Z,0.00
2018-03-02T00:18:07.521Z,0.00
2018-03-02T00:19:13.440Z,0.00
2018-03-02T00:20:19.332Z,0.00
2018-03-02T00:21:25.216Z,0.00
2018-03-02T00:22:31.091Z,0.00
2018-03-02T00:23:37.290Z,0.00
2018-03-02T00:24:42.887Z,0.00
2018-03-02T00:25:48.789Z,0.00
2018-03-02T00:26:54.654Z,0.00
2018-03-02T00:28:00.564Z,0.00
2018-03-02T00:29:06.439Z,0.00
2018-03-02T00:30:12.376Z,0.00
2018-03-02T00:31:18.225Z,0.00
2018-03-02T00:32:24.115Z,0.00
2018-03-02T00:33:30.007Z,0.00
2018-03-02T00:34:36.394Z,0.00
2018-03-02T00:35:41.813Z,0.00
2018-03-02T00:36:47.683Z,0.00
2018-03-02T00:37:53.619Z,0.00
2018-03-02T00:38:59.461Z,0.00
2018-03-02T00:40:05.727Z,0.00
2018-03-02T00:41:11.242Z,0.00
2018-03-02T00:42:17.637Z,0.00
2018-03-02T00:43:23.030Z,0.00
2018-03-02T00:44:29.413Z,0.00
2018-03-02T00:45:34.834Z,0.00
2018-03-02T00:46:40.700Z,0.00
2018-03-02T00:47:46.592Z,0.00
2018-03-02T00:48:52.483Z,0.00
2018-03-02T00:49:58.909Z,0.00
2018-03-02T00:51:04.275Z,0.00
2018-03-02T00:52:10.671Z,0.00
2018-03-02T00:53:16.066Z,0.00
2018-03-02T00:54:21.955Z,0.00
2018-03-02T00:55:28.157Z,0.00
2018-03-02T00:56:33.753Z,0.00
2018-03-02T00:57:39.626Z,0.00
2018-03-02T00:58:45.530Z,0.00
2018-03-02T00:59:51.414Z,0.00
2018-03-02T01:00:57.327Z,0.00
2018-03-02T01:02:03.193Z,0.00
2018-03-02T01:03:09.081Z,0.00
2018-03-02T01:04:14.986Z,0.00
2018-03-02T01:05:21.394Z,0.00
2018-03-02T01:06:26.772Z,0.00
2018-03-02T01:07:32.671Z,0.00
2018-03-02T01:08:38.555Z,0.00
2018-03-02T01:09:44.439Z,0.00
2018-03-02T01:10:50.350Z,0.00
2018-03-02T01:11:56.231Z,0.00
2018-03-02T01:13:02.639Z,0.00
2018-03-02T01:14:08.002Z,0.00
2018-03-02T01:15:13.913Z,0.00
2018-03-02T01:16:19.800Z,0.00
2018-03-02T01:17:25.669Z,0.00
2018-03-02T01:18:31.570Z,0.00
2018-03-02T01:19:37.961Z,0.00
2018-03-02T01:20:43.370Z,0.00
2018-03-02T01:21:49.273Z,0.00
2018-03-02T01:22:55.120Z,0.00
2018-03-02T01:24:01.007Z,0.00
2018-03-02T01:25:06.919Z,0.00
2018-03-02T01:26:12.793Z,0.00
2018-03-02T01:27:18.705Z,0.00
2018-03-02T01:28:24.573Z,0.00
2018-03-02T01:29:30.464Z,0.00
2018-03-02T01:30:36.370Z,0.00
2018-03-02T01:31:42.725Z,0.00
2018-03-02T01:32:48.641Z,0.00
2018-03-02T01:33:54.013Z,0.00
2018-03-02T01:34:59.906Z,0.00
2018-03-02T01:36:05.811Z,0.00
2018-03-02T01:37:11.793Z,0.00
2018-03-02T01:38:17.571Z,0.00
2018-03-02T01:39:23.452Z,0.00
2018-03-02T01:40:29.345Z,0.00
2018-03-02T01:41:35.216Z,0.00
2018-03-02T01:42:41.086Z,0.00
2018-03-02T01:43:46.974Z,0.00
2018-03-02T01:44:52.874Z,0.00
2018-03-02T01:45:58.761Z,0.00
2018-03-02T01:47:04.615Z,0.00
2018-03-02T01:48:10.494Z,0.00
2018-03-02T01:49:16.373Z,0.00
2018-03-02T01:50:22.277Z,0.00
2018-03-02T01:51:28.644Z,0.00
2018-03-02T01:52:34.009Z,0.00
2018-03-02T01:53:39.882Z,0.00
2018-03-02T01:54:45.766Z,0.00
2018-03-02T01:55:51.664Z,0.00
2018-03-02T01:56:57.538Z,0.00
2018-03-02T01:58:03.394Z,0.00
2018-03-02T01:59:09.271Z,0.00
2018-03-02T02:00:15.678Z,0.00
2018-03-02T02:01:21.022Z,0.00
2018-03-02T02:02:26.898Z,0.00
2018-03-02T02:03:32.774Z,0.00
2018-03-02T02:04:38.643Z,0.00
2018-03-02T02:05:44.533Z,0.00
2018-03-02T02:06:50.390Z,0.00
2018-03-02T02:07:56.267Z,0.00
2018-03-02T02:09:02.135Z,0.00
2018-03-02T02:10:08.056Z,0.00
2018-03-02T02:11:13.905Z,0.00
2018-03-02T02:12:19.760Z,0.00
2018-03-02T02:13:25.634Z,0.00
2018-03-02T02:14:31.500Z,0.00
2018-03-02T02:15:37.397Z,0.00
2018-03-02T02:16:43.248Z,0.00
2018-03-02T02:17:49.132Z,0.00
2018-03-02T02:18:55.029Z,0.00
2018-03-02T02:20:00.876Z,0.00
2018-03-02T02:21:06.964Z,0.00
2018-03-02T02:22:12.634Z,0.00
2018-03-02T02:23:18.492Z,0.00
2018-03-02T02:24:24.361Z,0.00
2018-03-02T02:25:30.267Z,0.00
2018-03-02T02:26:36.105Z,0.00
2018-03-02T02:27:41.969Z,0.00
2018-03-02T02:28:47.939Z,0.00
2018-03-02T02:29:53.721Z,0.00
2018-03-02T02:30:59.618Z,0.00
2018-03-02T02:32:05.467Z,0.00
2018-03-02T02:33:11.338Z,0.00
2018-03-02T02:34:17.199Z,0.00
2018-03-02T02:35:23.113Z,0.00
2018-03-02T02:36:28.980Z,0.00
2018-03-02T02:37:34.828Z,0.00
2018-03-02T02:38:40.700Z,0.00
2018-03-02T02:39:46.575Z,0.00
2018-03-02T02:40:52.459Z,0.00
2018-03-02T02:41:58.316Z,0.00
2018-03-02T02:43:04.181Z,0.00
2018-03-02T02:44:10.051Z,0.00
2018-03-02T02:45:15.911Z,0.00
2018-03-02T02:46:22.292Z,0.00
2018-03-02T02:47:27.676Z,0.00
2018-03-02T02:48:33.531Z,0.00
2018-03-02T02:49:39.400Z,0.00
2018-03-02T02:50:45.290Z,0.00
2018-03-02T02:51:51.146Z,0.00
2018-03-02T02:52:57.011Z,0.00
2018-03-02T02:54:02.891Z,0.00
2018-03-02T02:55:09.253Z,0.00
2018-03-02T02:56:14.641Z,0.00
2018-03-02T02:57:20.994Z,0.00
2018-03-02T02:58:26.349Z,0.00
2018-03-02T02:59:32.226Z,0.00
2018-03-02T03:00:38.610Z,0.00
2018-03-02T03:01:43.968Z,0.00
2018-03-02T03:02:49.922Z,0.00
2018-03-02T03:03:55.728Z,0.00
2018-03-02T03:05:02.069Z,0.00
2018-03-02T03:06:07.458Z,0.00
2018-03-02T03:07:13.315Z,0.00
2018-03-02T03:08:19.178Z,0.00
2018-03-02T03:09:25.060Z,0.00
2018-03-02T03:10:30.946Z,0.00
2018-03-02T03:11:36.795Z,0.00
2018-03-02T03:12:42.655Z,0.00
2018-03-02T03:13:48.509Z,0.00
2018-03-02T03:14:54.883Z,0.00
2018-03-02T03:16:00.273Z,0.00
2018-03-02T03:17:06.147Z,0.00
2018-03-02T03:18:11.991Z,0.00
2018-03-02T03:19:17.927Z,0.00
2018-03-02T03:20:23.719Z,0.00
2018-03-02T03:21:29.602Z,0.00
2018-03-02T03:22:35.453Z,0.00
2018-03-02T03:23:41.307Z,0.00
2018-03-02T03:24:47.178Z,0.00
2018-03-02T03:25:53.557Z,0.00
2018-03-02T03:26:58.905Z,0.00
2018-03-02T03:28:04.778Z,0.00
2018-03-02T03:29:10.640Z,0.00
2018-03-02T03:30:16.503Z,0.00
2018-03-02T03:31:22.378Z,0.00
2018-03-02T03:32:28.722Z,0.00
2018-03-02T03:33:34.094Z,0.00
2018-03-02T03:34:40.456Z,0.00
2018-03-02T03:35:46.328Z,0.00
2018-03-02T03:36:51.686Z,0.00
2018-03-02T03:37:57.574Z,0.00
2018-03-02T03:39:03.927Z,0.00
2018-03-02T03:40:09.301Z,0.00
2018-03-02T03:41:15.135Z,0.00
2018-03-02T03:42:20.968Z,0.00
2018-03-02T03:43:26.836Z,0.00
2018-03-02T03:44:32.688Z,0.00
2018-03-02T03:45:38.584Z,0.00
2018-03-02T03:46:44.397Z,0.00
2018-03-02T03:47:50.265Z,0.00
2018-03-02T03:48:56.126Z,0.00
2018-03-02T03:50:01.975Z,0.00
2018-03-02T03:51:07.941Z,0.00
2018-03-02T03:52:13.700Z,0.00
2018-03-02T03:53:19.538Z,0.00
2018-03-02T03:54:25.421Z,0.00
2018-03-02T03:55:31.261Z,0.00
2018-03-02T03:56:37.163Z,0.00
2018-03-02T03:57:43.479Z,0.00
2018-03-02T03:58:48.828Z,0.00
2018-03-02T03:59:54.697Z,0.00
2018-03-02T04:01:00.571Z,0.00
2018-03-02T04:02:06.900Z,0.00
2018-03-02T04:03:12.265Z,0.00
2018-03-02T04:04:18.131Z,0.00
2018-03-02T04:05:23.985Z,0.00
2018-03-02T04:06:29.949Z,0.00
2018-03-02T04:07:35.731Z,0.00
2018-03-02T04:08:41.554Z,0.00
2018-03-02T04:09:47.412Z,0.00
2018-03-02T04:10:53.294Z,0.00
2018-03-02T04:11:59.124Z,0.00
2018-03-02T04:13:05.493Z,0.00
2018-03-02T04:14:10.846Z,0.00
2018-03-02T04:15:16.715Z,0.00
2018-03-02T04:16:22.590Z,0.00
2018-03-02T04:17:28.416Z,0.00
2018-03-02T04:18:34.286Z,0.00
2018-03-02T04:19:40.142Z,0.00
2018-03-02T04:20:46.045Z,0.00
2018-03-02T04:21:51.953Z,0.00
2018-03-02T04:22:57.727Z,0.00
2018-03-02T04:24:03.575Z,0.00
2018-03-02T04:25:09.426Z,0.00
2018-03-02T04:26:15.305Z,0.00
2018-03-02T04:27:21.136Z,0.00
2018-03-02T04:28:26.992Z,0.00
2018-03-02T04:29:32.864Z,0.00
2018-03-02T04:30:38.710Z,0.00
2018-03-02T04:31:45.085Z,0.00
2018-03-02T04:32:50.425Z,0.00
2018-03-02T04:33:56.277Z,0.00
2018-03-02T04:35:02.125Z,0.00
2018-03-02T04:36:08.034Z,0.00
2018-03-02T04:37:13.936Z,0.00
2018-03-02T04:38:20.191Z,0.00
2018-03-02T04:39:25.601Z,0.00
2018-03-02T04:40:31.922Z,0.00
2018-03-02T04:41:37.796Z,0.00
2018-03-02T04:42:43.131Z,0.00
2018-03-02T04:43:48.981Z,0.00
2018-03-02T04:44:54.844Z,0.00
2018-03-02T04:46:00.723Z,0.00
2018-03-02T04:47:06.546Z,0.00
2018-03-02T04:48:12.484Z,0.00
2018-03-02T04:49:18.264Z,0.00
2018-03-02T04:50:24.627Z,0.00
2018-03-02T04:51:30.054Z,0.00
2018-03-02T04:52:35.928Z,0.00
2018-03-02T04:53:41.708Z,0.00
2018-03-02T04:54:47.555Z,0.00
2018-03-02T04:55:53.569Z,0.00
2018-03-02T04:56:59.279Z,0.00
2018-03-02T04:58:05.624Z,0.00
2018-03-02T04:59:11.510Z,0.00
2018-03-02T05:00:17.349Z,0.00
2018-03-02T05:01:23.224Z,0.00
2018-03-02T05:02:28.562Z,0.00
2018-03-02T05:03:34.918Z,0.00
2018-03-02T05:04:40.283Z,0.00
2018-03-02T05:05:46.650Z,0.00
2018-03-02T05:06:52.521Z,0.00
2018-03-02T05:07:57.916Z,0.00
2018-03-02T05:09:04.203Z,0.00
2018-03-02T05:10:09.571Z,0.00
2018-03-02T05:11:15.448Z,0.00
2018-03-02T05:12:21.791Z,0.00
2018-03-02T05:13:27.152Z,0.00
2018-03-02T05:14:33.495Z,0.00
2018-03-02T05:15:38.939Z,0.00
2018-03-02T05:16:44.751Z,0.00
2018-03-02T05:17:50.575Z,0.00
2018-03-02T05:18:56.434Z,0.00
2018-03-02T05:20:02.300Z,0.00
2018-03-02T05:21:08.214Z,0.00
2018-03-02T05:22:14.483Z,0.00
2018-03-02T05:23:19.845Z,0.00
2018-03-02T05:24:25.708Z,0.00
2018-03-02T05:25:31.557Z,0.00
2018-03-02T05:26:37.429Z,0.00
2018-03-02T05:27:43.268Z,0.00
2018-03-02T05:28:49.119Z,0.00
2018-03-02T05:29:54.983Z,0.00
2018-03-02T05:31:00.859Z,0.00
2018-03-02T05:32:07.190Z,0.00
2018-03-02T05:33:13.024Z,0.00
2018-03-02T05:34:18.928Z,0.00
2018-03-02T05:35:24.227Z,4.00
2018-03-02T05:36:30.104Z,4.00
2018-03-02T05:37:35.930Z,0.00
2018-03-02T05:38:42.277Z,4.00
2018-03-02T05:39:47.645Z,4.00
2018-03-02T05:40:53.985Z,4.00
2018-03-02T05:41:59.359Z,4.00
2018-03-02T05:43:05.193Z,4.00
2018-03-02T05:44:11.073Z,4.00
2018-03-02T05:45:16.888Z,8.00
2018-03-02T05:46:22.776Z,12.00
2018-03-02T05:47:28.811Z,12.00
2018-03-02T05:48:34.460Z,16.00
2018-03-02T05:49:40.296Z,16.00
2018-03-02T05:50:46.704Z,24.00
2018-03-02T05:51:52.527Z,28.00
2018-03-02T05:52:57.884Z,32.00
2018-03-02T05:54:03.703Z,36.00
2018-03-02T05:55:10.053Z,44.00
2018-03-02T05:56:15.432Z,52.00
2018-03-02T05:57:21.240Z,64.00
2018-03-02T05:58:27.109Z,72.00
2018-03-02T05:59:33.441Z,88.00
2018-03-02T06:00:38.801Z,104.00
2018-03-02T06:01:45.164Z,124.00
2018-03-02T06:02:50.507Z,140.00
2018-03-02T06:03:56.384Z,144.00
2018-03-02T06:05:02.218Z,152.00
2018-03-02T06:06:08.065Z,164.00
2018-03-02T06:07:14.507Z,176.00
2018-03-02T06:08:19.768Z,192.00
2018-03-02T06:09:25.644Z,208.00
2018-03-02T06:10:31.973Z,228.00
2018-03-02T06:11:38.364Z,252.00
2018-03-02T06:12:43.197Z,276.00
2018-03-02T06:13:49.076Z,300.00
2018-03-02T06:14:54.909Z,324.00
2018-03-02T06:16:00.750Z,348.00
2018-03-02T06:17:07.134Z,380.00
2018-03-02T06:18:12.458Z,412.00
2018-03-02T06:19:18.336Z,440.00
2018-03-02T06:20:24.194Z,464.00
2018-03-02T06:21:30.054Z,492.00
2018-03-02T06:22:35.885Z,528.00
2018-03-02T06:23:41.750Z,568.00
2018-03-02T06:24:48.089Z,612.00
2018-03-02T06:25:53.458Z,660.00
2018-03-02T06:26:59.327Z,704.00
2018-03-02T06:28:05.171Z,756.00
2018-03-02T06:29:11.026Z,808.00
2018-03-02T06:30:16.883Z,860.00
2018-03-02T06:31:22.764Z,912.00
2018-03-02T06:32:28.588Z,960.00
2018-03-02T06:33:34.461Z,1004.00
2018-03-02T06:34:40.304Z,1044.00
2018-03-02T06:35:46.161Z,1084.00
2018-03-02T06:36:52.057Z,1108.00
2018-03-02T06:37:57.925Z,1136.00
2018-03-02T06:39:03.744Z,1156.00
2018-03-02T06:40:09.613Z,1172.00
2018-03-02T06:41:15.474Z,1188.00
2018-03-02T06:42:21.371Z,1204.00
2018-03-02T06:43:27.229Z,1224.00
2018-03-02T06:44:33.550Z,1248.00
2018-03-02T06:45:38.946Z,1276.00
2018-03-02T06:46:44.803Z,1320.00
2018-03-02T06:47:50.638Z,1376.00
2018-03-02T06:48:56.510Z,1436.00
2018-03-02T06:50:02.373Z,1496.00
2018-03-02T06:51:08.738Z,1564.00
2018-03-02T06:52:14.132Z,1632.00
2018-03-02T06:53:20.499Z,1712.00
2018-03-02T06:54:25.838Z,1796.00
2018-03-02T06:55:31.713Z,1872.00
2018-03-02T06:56:37.581Z,1948.00
2018-03-02T06:57:43.445Z,2016.00
2018-03-02T06:58:49.313Z,2084.00
2018-03-02T06:59:55.200Z,2148.00
2018-03-02T07:01:01.057Z,2212.00
2018-03-02T07:02:06.945Z,2280.00
2018-03-02T07:03:12.793Z,2356.00
2018-03-02T07:04:18.684Z,2436.00
2018-03-02T07:05:24.539Z,2512.00
2018-03-02T07:06:30.433Z,2600.00
2018-03-02T07:07:36.281Z,2684.00
2018-03-02T07:08:42.162Z,2776.00
2018-03-02T07:09:48.059Z,2876.00
2018-03-02T07:10:54.466Z,2980.00
2018-03-02T07:11:59.832Z,3088.00
2018-03-02T07:13:05.691Z,3196.00
2018-03-02T07:14:12.068Z,3308.00
2018-03-02T07:15:17.470Z,3428.00
2018-03-02T07:16:23.842Z,3548.00
2018-03-02T07:17:29.480Z,3640.00
2018-03-02T07:18:35.137Z,3724.00
2018-03-02T07:19:41.010Z,3840.00
2018-03-02T07:20:46.908Z,3972.00
2018-03-02T07:21:52.824Z,4052.00
2018-03-02T07:22:58.724Z,4084.00
2018-03-02T07:24:04.601Z,4120.00
2018-03-02T07:25:10.981Z,4168.00
2018-03-02T07:26:16.385Z,4196.00
2018-03-02T07:27:22.300Z,4208.00
2018-03-02T07:28:28.195Z,4284.00
2018-03-02T07:29:34.586Z,4420.00
2018-03-02T07:30:39.987Z,4564.00
2018-03-02T07:31:45.909Z,4688.00
2018-03-02T07:32:52.296Z,4792.00
2018-03-02T07:33:57.690Z,4928.00
2018-03-02T07:35:03.628Z,5068.00
2018-03-02T07:36:09.522Z,5184.00
2018-03-02T07:37:15.437Z,5308.00
2018-03-02T07:38:21.341Z,5524.00
2018-03-02T07:39:27.249Z,5772.00
2018-03-02T07:40:33.204Z,6040.00
2018-03-02T07:41:39.098Z,6308.00
2018-03-02T07:42:44.994Z,6516.00
2018-03-02T07:43:50.902Z,6648.00
2018-03-02T07:44:57.368Z,6764.00
2018-03-02T07:46:03.251Z,6892.00
2018-03-02T07:47:08.715Z,7044.00
2018-03-02T07:48:14.804Z,7260.00
2018-03-02T07:49:21.037Z,7424.00
2018-03-02T07:50:26.474Z,7548.00
2018-03-02T07:51:34.359Z,7664.00
2018-03-02T07:52:38.386Z,7792.00
2018-03-02T07:53:44.271Z,7876.00
2018-03-02T07:54:50.204Z,7920.00
2018-03-02T07:55:56.627Z,7944.00
2018-03-02T07:57:02.118Z,7980.00
2018-03-02T07:58:08.032Z,8016.00
2018-03-02T07:59:14.456Z,8192.00
2018-03-02T08:00:20.394Z,8412.00
2018-03-02T08:01:25.926Z,8564.00
2018-03-02T08:02:31.820Z,8636.00
2018-03-02T08:03:37.738Z,8692.00
2018-03-02T08:04:43.686Z,8784.00
2018-03-02T08:05:50.131Z,8808.00
2018-03-02T08:06:56.087Z,8788.00
2018-03-02T08:08:01.566Z,8728.00
2018-03-02T08:09:07.495Z,8668.00
2018-03-02T08:10:13.451Z,8732.00
2018-03-02T08:11:19.416Z,8956.00
2018-03-02T08:12:25.367Z,9236.00
2018-03-02T08:13:31.342Z,9496.00
2018-03-02T08:14:37.292Z,9704.00
2018-03-02T08:15:43.234Z,9852.00
2018-03-02T08:16:49.694Z,9980.00
2018-03-02T08:17:55.163Z,10120.00
2018-03-02T08:19:01.154Z,10232.00
2018-03-02T08:20:07.121Z,10252.00
2018-03-02T08:21:13.071Z,10044.00
2018-03-02T08:22:19.528Z,9756.00
2018-03-02T08:23:25.038Z,9440.00
2018-03-02T08:24:32.490Z,9192.00
2018-03-02T08:25:36.958Z,9072.00
2018-03-02T08:26:42.916Z,9060.00
2018-03-02T08:27:49.383Z,9128.00
2018-03-02T08:28:54.889Z,9276.00
2018-03-02T08:30:00.844Z,9348.00
2018-03-02T08:31:06.801Z,9256.00
2018-03-02T08:32:13.260Z,9068.00
2018-03-02T08:33:18.791Z,8860.00
2018-03-02T08:34:25.237Z,8672.00
2018-03-02T08:35:30.685Z,8564.00
2018-03-02T08:36:37.156Z,8548.00
2018-03-02T08:37:42.627Z,8612.00
2018-03-02T08:38:49.121Z,8636.00
2018-03-02T08:39:54.610Z,8592.00
2018-03-02T08:41:01.050Z,8500.00
2018-03-02T08:42:06.537Z,8364.00
2018-03-02T08:43:12.999Z,8264.00
2018-03-02T08:44:18.976Z,8224.00
2018-03-02T08:45:24.453Z,8216.00
2018-03-02T08:46:30.415Z,8256.00
2018-03-02T08:47:36.900Z,8268.00
2018-03-02T08:48:42.394Z,8296.00
2018-03-02T08:49:48.338Z,8496.00
2018-03-02T08:50:54.315Z,8948.00
2018-03-02T08:52:00.305Z,9508.00
2018-03-02T08:53:06.257Z,9960.00
2018-03-02T08:54:12.253Z,10172.00
2018-03-02T08:55:18.707Z,10124.00
2018-03-02T08:56:24.672Z,10184.00
2018-03-02T08:57:30.219Z,10360.00
2018-03-02T08:58:36.691Z,10472.00
2018-03-02T08:59:42.170Z,10348.00
2018-03-02T09:00:48.123Z,10076.00
2018-03-02T09:01:54.114Z,9748.00
2018-03-02T09:03:00.097Z,9552.00
2018-03-02T09:04:06.594Z,9564.00
2018-03-02T09:05:12.059Z,9652.00
2018-03-02T09:06:18.058Z,9872.00
2018-03-02T09:07:24.036Z,10200.00
2018-03-02T09:08:30.023Z,10632.00
2018-03-02T09:09:36.046Z,11092.00
2018-03-02T09:10:42.000Z,11396.00
2018-03-02T09:11:47.997Z,11412.00
2018-03-02T09:12:54.495Z,11216.00
2018-03-02T09:14:00.009Z,10892.00
2018-03-02T09:15:05.971Z,10556.00
2018-03-02T09:16:12.006Z,10276.00
2018-03-02T09:17:17.982Z,10028.00
2018-03-02T09:18:24.009Z,9848.00
2018-03-02T09:19:29.986Z,9808.00
2018-03-02T09:20:35.967Z,9932.00
2018-03-02T09:21:41.950Z,10252.00
2018-03-02T09:22:48.429Z,10796.00
2018-03-02T09:23:53.935Z,11548.00
2018-03-02T09:25:00.444Z,12408.00
2018-03-02T09:26:05.929Z,12944.00
2018-03-02T09:27:11.929Z,13256.00
2018-03-02T09:28:17.953Z,13456.00
2018-03-02T09:29:23.945Z,13628.00
2018-03-02T09:30:29.968Z,13800.00
2018-03-02T09:31:35.953Z,13984.00
2018-03-02T09:32:41.958Z,14184.00
2018-03-02T09:33:47.992Z,14400.00
2018-03-02T09:34:54.033Z,14608.00
2018-03-02T09:36:00.007Z,14808.00
2018-03-02T09:37:06.036Z,14992.00
2018-03-02T09:38:12.072Z,15168.00
2018-03-02T09:39:18.079Z,15348.00
2018-03-02T09:40:24.123Z,15544.00
2018-03-02T09:41:30.181Z,15736.00
2018-03-02T09:42:36.212Z,15872.00
2018-03-02T09:43:42.195Z,15956.00
2018-03-02T09:44:48.738Z,15912.00
2018-03-02T09:45:54.294Z,15732.00
2018-03-02T09:47:00.289Z,15496.00
2018-03-02T09:48:06.326Z,15296.00
2018-03-02T09:49:12.374Z,15196.00
2018-03-02T09:50:18.938Z,15196.00
2018-03-02T09:51:24.465Z,15220.00
2018-03-02T09:52:30.998Z,15176.00
2018-03-02T09:53:36.571Z,15028.00
2018-03-02T09:54:43.093Z,14884.00
2018-03-02T09:55:48.679Z,14720.00
2018-03-02T09:56:55.197Z,14476.00
2018-03-02T09:58:00.771Z,14272.00
2018-03-02T09:59:06.818Z,14080.00
2018-03-02T10:00:12.873Z,13992.00
2018-03-02T10:01:18.942Z,13972.00
2018-03-02T10:02:24.990Z,14124.00
2018-03-02T10:03:31.526Z,14260.00
2018-03-02T10:04:37.599Z,14464.00
2018-03-02T10:05:43.639Z,14816.00
2018-03-02T10:06:49.734Z,15296.00
2018-03-02T10:07:55.267Z,15796.00
2018-03-02T10:09:01.834Z,16268.00
2018-03-02T10:10:07.897Z,16560.00
2018-03-02T10:11:13.958Z,16644.00
2018-03-02T10:12:19.565Z,16712.00
2018-03-02T10:13:25.589Z,16948.00
2018-03-02T10:14:31.673Z,17236.00
2018-03-02T10:15:38.226Z,17632.00
2018-03-02T10:16:43.849Z,17792.00
2018-03-02T10:17:49.898Z,17888.00
2018-03-02T10:18:55.966Z,17792.00
2018-03-02T10:20:02.040Z,17568.00
2018-03-02T10:21:08.120Z,17152.00
2018-03-02T10:22:14.721Z,17044.00
2018-03-02T10:23:20.304Z,17048.00
2018-03-02T10:24:26.926Z,17108.00
2018-03-02T10:25:32.435Z,17076.00
2018-03-02T10:26:38.516Z,16960.00
2018-03-02T10:27:45.128Z,16876.00
2018-03-02T10:28:51.180Z,16844.00
2018-03-02T10:29:56.768Z,16932.00
2018-03-02T10:31:02.842Z,17096.00
2018-03-02T10:32:09.446Z,17536.00
2018-03-02T10:33:15.014Z,17888.00
2018-03-02T10:34:21.099Z,18272.00
2018-03-02T10:35:27.183Z,18656.00
2018-03-02T10:36:33.268Z,19008.00
2018-03-02T10:37:40.943Z,19232.00
2018-03-02T10:38:45.457Z,19360.00
2018-03-02T10:39:52.037Z,19392.00
2018-03-02T10:40:57.636Z,19360.00
2018-03-02T10:42:04.237Z,19392.00
2018-03-02T10:43:09.852Z,19424.00
2018-03-02T10:44:15.942Z,19520.00
2018-03-02T10:45:22.048Z,19584.00
2018-03-02T10:46:28.149Z,19520.00
2018-03-02T10:47:34.263Z,19328.00
2018-03-02T10:48:40.381Z,19104.00
2018-03-02T10:49:46.476Z,18816.00
2018-03-02T10:50:53.069Z,18592.00
2018-03-02T10:51:58.721Z,18400.00
2018-03-02T10:53:04.832Z,18240.00
2018-03-02T10:54:10.903Z,18112.00
2018-03-02T10:55:17.504Z,17920.00
2018-03-02T10:56:23.609Z,17696.00
2018-03-02T10:57:29.220Z,17600.00
2018-03-02T10:58:35.356Z,17536.00
2018-03-02T10:59:41.448Z,17568.00
2018-03-02T11:00:48.043Z,17600.00
2018-03-02T11:01:54.204Z,17632.00
2018-03-02T11:03:00.294Z,17696.00
2018-03-02T11:04:05.886Z,17856.00
2018-03-02T11:05:12.001Z,18112.00
2018-03-02T11:06:18.113Z,18464.00
2018-03-02T11:07:24.228Z,18784.00
2018-03-02T11:08:30.947Z,19104.00
2018-03-02T11:09:36.457Z,19328.00
2018-03-02T11:10:42.563Z,19520.00
2018-03-02T11:11:48.724Z,19744.00
2018-03-02T11:12:54.849Z,19872.00
2018-03-02T11:14:00.946Z,19936.00
2018-03-02T11:15:07.039Z,19872.00
2018-03-02T11:16:13.170Z,19776.00
2018-03-02T11:17:19.292Z,19648.00
2018-03-02T11:18:25.436Z,19616.00
2018-03-02T11:19:31.557Z,19616.00
2018-03-02T11:20:37.989Z,19616.00
2018-03-02T11:21:44.295Z,19712.00
2018-03-02T11:22:49.960Z,19808.00
2018-03-02T11:23:56.577Z,19968.00
2018-03-02T11:25:02.706Z,20096.00
2018-03-02T11:26:08.305Z,20320.00
2018-03-02T11:27:14.442Z,20672.00
2018-03-02T11:28:20.585Z,21056.00
2018-03-02T11:29:26.704Z,21440.00
2018-03-02T11:30:32.845Z,21824.00
2018-03-02T11:31:39.457Z,22080.00
2018-03-02T11:32:45.119Z,22208.00
2018-03-02T11:33:51.754Z,22304.00
2018-03-02T11:34:57.394Z,22368.00
2018-03-02T11:36:03.521Z,22464.00
2018-03-02T11:37:09.673Z,22432.00
2018-03-02T11:38:15.844Z,22496.00
2018-03-02T11:39:21.969Z,22624.00
2018-03-02T11:40:28.101Z,22720.00
2018-03-02T11:41:34.744Z,22720.00
2018-03-02T11:42:40.395Z,22592.00
2018-03-02T11:43:46.588Z,22496.00
2018-03-02T11:44:52.696Z,22368.00
2018-03-02T11:45:58.929Z,22208.00
2018-03-02T11:47:05.035Z,22112.00
2018-03-02T11:48:11.176Z,22144.00
2018-03-02T11:49:17.331Z,22208.00
2018-03-02T11:50:23.440Z,22272.00
2018-03-02T11:51:29.596Z,22400.00
2018-03-02T11:52:36.280Z,22624.00
2018-03-02T11:53:42.420Z,22848.00
2018-03-02T11:54:48.095Z,23008.00
2018-03-02T11:55:54.228Z,23104.00
2018-03-02T11:57:00.928Z,23072.00
2018-03-02T11:58:06.535Z,23008.00
2018-03-02T11:59:13.227Z,22976.00
2018-03-02T12:00:19.356Z,22880.00
2018-03-02T12:01:25.539Z,22688.00
2018-03-02T12:02:31.205Z,22496.00
2018-03-02T12:03:37.399Z,22240.00
2018-03-02T12:04:43.563Z,22144.00
2018-03-02T12:05:49.715Z,22080.00
2018-03-02T12:06:55.888Z,22176.00
2018-03-02T12:08:02.067Z,22240.00
2018-03-02T12:09:08.255Z,22368.00
2018-03-02T12:10:14.903Z,22368.00
2018-03-02T12:11:20.589Z,22272.00
2018-03-02T12:12:27.257Z,22176.00
2018-03-02T12:13:32.959Z,21952.00
2018-03-02T12:14:39.124Z,21728.00
2018-03-02T12:15:45.290Z,21536.00
2018-03-02T12:16:51.535Z,21312.00
2018-03-02T12:17:57.641Z,21024.00
2018-03-02T12:19:03.839Z,20640.00
2018-03-02T12:20:10.015Z,20160.00
2018-03-02T12:21:16.157Z,19648.00
2018-03-02T12:22:22.338Z,19168.00
2018-03-02T12:23:28.534Z,18688.00
2018-03-02T12:24:34.670Z,18336.00
2018-03-02T12:25:40.928Z,18080.00
2018-03-02T12:26:47.492Z,17856.00
2018-03-02T12:27:53.158Z,17632.00
2018-03-02T12:28:59.853Z,17224.00
2018-03-02T12:30:05.502Z,16864.00
2018-03-02T12:31:11.659Z,16600.00
2018-03-02T12:32:17.810Z,16260.00
2018-03-02T12:33:23.976Z,15960.00
2018-03-02T12:34:30.162Z,15760.00
2018-03-02T12:35:37.095Z,15572.00
2018-03-02T12:36:42.806Z,15252.00
2018-03-02T12:37:48.618Z,15016.00
2018-03-02T12:38:54.747Z,14876.00
2018-03-02T12:40:00.871Z,14736.00
2018-03-02T12:41:07.019Z,14448.00
2018-03-02T12:42:13.166Z,13988.00
2018-03-02T12:43:19.799Z,13488.00
2018-03-02T12:44:25.962Z,13232.00
2018-03-02T12:45:32.066Z,13228.00
2018-03-02T12:46:37.712Z,13196.00
2018-03-02T12:47:43.865Z,13008.00
2018-03-02T12:48:50.007Z,12772.00
2018-03-02T12:49:56.120Z,12580.00
2018-03-02T12:51:02.242Z,12492.00
2018-03-02T12:52:08.931Z,12564.00
2018-03-02T12:53:14.488Z,12792.00
2018-03-02T12:54:20.689Z,13116.00
2018-03-02T12:55:26.732Z,13484.00
2018-03-02T12:56:33.344Z,13836.00
2018-03-02T12:57:38.981Z,14072.00
2018-03-02T12:58:45.137Z,14188.00
2018-03-02T12:59:51.224Z,14236.00
2018-03-02T13:00:57.337Z,14204.00
2018-03-02T13:02:03.469Z,14156.00
2018-03-02T13:03:10.088Z,14108.00
2018-03-02T13:04:15.742Z,14044.00
2018-03-02T13:05:22.336Z,13940.00
2018-03-02T13:06:28.479Z,13804.00
2018-03-02T13:07:34.104Z,13676.00
2018-03-02T13:08:40.226Z,13552.00
2018-03-02T13:09:46.374Z,13472.00
2018-03-02T13:10:52.787Z,13448.00
2018-03-02T13:11:58.608Z,13432.00
2018-03-02T13:13:05.226Z,13352.00
2018-03-02T13:14:10.960Z,13240.00
2018-03-02T13:15:17.475Z,13064.00
2018-03-02T13:16:23.592Z,12944.00
2018-03-02T13:17:29.727Z,12820.00
2018-03-02T13:18:35.360Z,12712.00
2018-03-02T13:19:41.998Z,12640.00
2018-03-02T13:20:47.576Z,12588.00
2018-03-02T13:21:53.711Z,12540.00
2018-03-02T13:22:59.830Z,12484.00
2018-03-02T13:24:06.464Z,12484.00
2018-03-02T13:25:12.590Z,12508.00
2018-03-02T13:26:18.184Z,12616.00
2018-03-02T13:27:24.784Z,12880.00
2018-03-02T13:28:30.928Z,13144.00
2018-03-02T13:29:37.049Z,13360.00
2018-03-02T13:30:42.645Z,13524.00
2018-03-02T13:31:48.760Z,13536.00
2018-03-02T13:32:54.879Z,13404.00
2018-03-02T13:34:01.213Z,13100.00
2018-03-02T13:35:07.137Z,12612.00
2018-03-02T13:36:13.250Z,12008.00
2018-03-02T13:37:19.859Z,11360.00
2018-03-02T13:38:25.485Z,10704.00
2018-03-02T13:39:31.624Z,10084.00
2018-03-02T13:40:37.714Z,9700.00
2018-03-02T13:41:43.825Z,9588.00
2018-03-02T13:42:51.494Z,9592.00